SWR9AM LSZH-EGLL
Flight info
| Callsign | SWR9AM |
|---|---|
| Flight time | 1h 17m |
| Altitude | 36000 |
| Route | VEBIT T10 TORPA DCT REKLA DCT RLP DCT ROTSI DCT KOTUN DCT NINAL DCT ABNUR DCT DIMAL DCT ALESO |
| Aircraft | A320/M-SDE3FGHIRWY/LB1 |
Departure
| Time | 2026-05-05 16:56 |
|---|---|
| Airport | Zürich Airport (LSZH) |
Arrival
| Time | 2026-05-05 18:13 |
|---|---|
| Airport | London Heathrow Airport (EGLL) |
| Time | Latitude | Longitude | Altitude | Speed | Heading |
|---|---|---|---|---|---|
| 2026-05-05 16:39 | 47.45354 | 8.55702 | 1407 ft | 0 kts | 6° |
| 2026-05-05 16:50 | 47.45344 | 8.55700 | 1413 ft | 4 kts | 6° |
| 2026-05-05 16:50 | 47.45317 | 8.55696 | 1410 ft | 4 kts | 5° |
| 2026-05-05 16:50 | 47.45291 | 8.55696 | 1410 ft | 4 kts | 345° |
| 2026-05-05 16:50 | 47.45269 | 8.55714 | 1412 ft | 4 kts | 299° |
| 2026-05-05 16:51 | 47.45264 | 8.55733 | 1407 ft | 1 kts | 276° |
| 2026-05-05 16:51 | 47.45264 | 8.55736 | 1407 ft | 0 kts | 276° |
| 2026-05-05 16:52 | 47.45265 | 8.55726 | 1407 ft | 7 kts | 276° |
| 2026-05-05 16:52 | 47.45280 | 8.55598 | 1408 ft | 13 kts | 295° |
| 2026-05-05 16:52 | 47.45352 | 8.55527 | 1411 ft | 15 kts | 335° |
| 2026-05-05 16:52 | 47.45456 | 8.55454 | 1409 ft | 17 kts | 334° |
| 2026-05-05 16:53 | 47.45524 | 8.55506 | 1409 ft | 10 kts | 84° |
| 2026-05-05 16:53 | 47.45517 | 8.55626 | 1411 ft | 16 kts | 98° |
| 2026-05-05 16:53 | 47.45504 | 8.55802 | 1409 ft | 15 kts | 97° |
| 2026-05-05 16:53 | 47.45495 | 8.55929 | 1407 ft | 10 kts | 95° |
| 2026-05-05 16:54 | 47.45488 | 8.56027 | 1410 ft | 14 kts | 96° |
| 2026-05-05 16:54 | 47.45481 | 8.56194 | 1407 ft | 14 kts | 75° |
| 2026-05-05 16:54 | 47.45565 | 8.56255 | 1415 ft | 19 kts | 7° |
| 2026-05-05 16:54 | 47.45682 | 8.56274 | 1413 ft | 14 kts | 6° |
| 2026-05-05 16:55 | 47.45767 | 8.56287 | 1418 ft | 15 kts | 6° |
| 2026-05-05 16:55 | 47.45917 | 8.56313 | 1415 ft | 26 kts | 6° |
| 2026-05-05 16:55 | 47.46093 | 8.56338 | 1410 ft | 25 kts | 5° |
| 2026-05-05 16:55 | 47.46253 | 8.56278 | 1410 ft | 26 kts | 321° |
| 2026-05-05 16:56 | 47.46518 | 8.55917 | 1399 ft | 86 kts | 317° |
| 2026-05-05 16:56 | 47.47109 | 8.55107 | 1385 ft | 143 kts | 317° |
| 2026-05-05 16:56 | 47.47927 | 8.54015 | 1737 ft | 161 kts | 315° |
| 2026-05-05 16:56 | 47.48773 | 8.52937 | 2523 ft | 160 kts | 316° |
| 2026-05-05 16:57 | 47.49675 | 8.51800 | 2940 ft | 183 kts | 324° |
| 2026-05-05 16:57 | 47.50843 | 8.50804 | 3277 ft | 205 kts | 327° |
| 2026-05-05 16:57 | 47.51699 | 8.50083 | 3525 ft | 220 kts | 325° |
| 2026-05-05 16:57 | 47.52814 | 8.48560 | 4325 ft | 220 kts | 301° |
| 2026-05-05 16:58 | 47.53160 | 8.47698 | 4560 ft | 228 kts | 289° |
| 2026-05-05 16:58 | 47.53422 | 8.45965 | 4897 ft | 241 kts | 266° |
| 2026-05-05 16:58 | 47.52940 | 8.43561 | 5516 ft | 252 kts | 235° |
| 2026-05-05 16:58 | 47.51753 | 8.41634 | 6441 ft | 255 kts | 226° |
| 2026-05-05 16:59 | 47.50534 | 8.39707 | 7386 ft | 257 kts | 228° |
| 2026-05-05 16:59 | 47.49358 | 8.37740 | 8314 ft | 260 kts | 229° |
| 2026-05-05 16:59 | 47.48291 | 8.35560 | 9162 ft | 265 kts | 244° |
| 2026-05-05 16:59 | 47.47862 | 8.32893 | 10031 ft | 271 kts | 262° |
| 2026-05-05 17:00 | 47.47707 | 8.30001 | 10425 ft | 294 kts | 263° |
| 2026-05-05 17:00 | 47.47551 | 8.26871 | 10690 ft | 317 kts | 263° |
| 2026-05-05 17:00 | 47.47395 | 8.23548 | 11216 ft | 329 kts | 263° |
| 2026-05-05 17:00 | 47.47239 | 8.20152 | 11936 ft | 334 kts | 263° |
| 2026-05-05 17:01 | 47.47078 | 8.16707 | 12706 ft | 337 kts | 263° |
| 2026-05-05 17:01 | 47.46913 | 8.13235 | 13478 ft | 340 kts | 263° |
| 2026-05-05 17:01 | 47.46743 | 8.09726 | 14156 ft | 345 kts | 263° |
| 2026-05-05 17:01 | 47.46565 | 8.06172 | 14802 ft | 349 kts | 263° |
| 2026-05-05 17:02 | 47.46383 | 8.02572 | 15462 ft | 353 kts | 263° |
| 2026-05-05 17:02 | 47.46197 | 7.98941 | 16107 ft | 357 kts | 263° |
| 2026-05-05 17:02 | 47.46001 | 7.95260 | 16741 ft | 361 kts | 263° |
| 2026-05-05 17:02 | 47.45777 | 7.91536 | 17365 ft | 365 kts | 262° |
| 2026-05-05 17:03 | 47.45536 | 7.87782 | 17985 ft | 369 kts | 262° |
| 2026-05-05 17:03 | 47.45287 | 7.83991 | 18534 ft | 372 kts | 262° |
| 2026-05-05 17:03 | 47.45034 | 7.80160 | 19027 ft | 377 kts | 262° |
| 2026-05-05 17:03 | 47.44778 | 7.76295 | 19521 ft | 380 kts | 262° |
| 2026-05-05 17:04 | 47.44524 | 7.72424 | 20041 ft | 384 kts | 262° |
| 2026-05-05 17:04 | 47.44267 | 7.68473 | 20537 ft | 388 kts | 262° |
| 2026-05-05 17:04 | 47.44007 | 7.64479 | 21020 ft | 392 kts | 261° |
| 2026-05-05 17:04 | 47.43747 | 7.60452 | 21500 ft | 396 kts | 261° |
| 2026-05-05 17:05 | 47.43483 | 7.56378 | 21972 ft | 400 kts | 261° |
| 2026-05-05 17:05 | 47.43215 | 7.52263 | 22437 ft | 404 kts | 261° |
| 2026-05-05 17:05 | 47.42942 | 7.48101 | 22934 ft | 408 kts | 261° |
| 2026-05-05 17:05 | 47.42666 | 7.43913 | 23380 ft | 412 kts | 261° |
| 2026-05-05 17:06 | 47.42384 | 7.39686 | 23745 ft | 416 kts | 261° |
| 2026-05-05 17:06 | 47.42095 | 7.35421 | 24152 ft | 418 kts | 261° |
| 2026-05-05 17:06 | 47.41804 | 7.31152 | 24528 ft | 419 kts | 261° |
| 2026-05-05 17:06 | 47.41511 | 7.26859 | 24915 ft | 421 kts | 261° |
| 2026-05-05 17:07 | 47.41217 | 7.22555 | 25300 ft | 423 kts | 261° |
| 2026-05-05 17:07 | 47.40944 | 7.18217 | 25691 ft | 426 kts | 264° |
| 2026-05-05 17:07 | 47.41037 | 7.13832 | 26082 ft | 431 kts | 274° |
| 2026-05-05 17:07 | 47.41589 | 7.09451 | 26459 ft | 436 kts | 279° |
| 2026-05-05 17:08 | 47.42242 | 7.05067 | 26847 ft | 438 kts | 279° |
| 2026-05-05 17:08 | 47.42892 | 7.00665 | 27204 ft | 440 kts | 279° |
| 2026-05-05 17:08 | 47.43545 | 6.96235 | 27572 ft | 442 kts | 279° |
| 2026-05-05 17:08 | 47.44203 | 6.91771 | 27932 ft | 444 kts | 279° |
| 2026-05-05 17:09 | 47.44857 | 6.87307 | 28282 ft | 446 kts | 279° |
| 2026-05-05 17:09 | 47.45508 | 6.82823 | 28610 ft | 448 kts | 279° |
| 2026-05-05 17:09 | 47.46150 | 6.78371 | 28944 ft | 449 kts | 279° |
| 2026-05-05 17:09 | 47.46798 | 6.73837 | 29274 ft | 451 kts | 279° |
| 2026-05-05 17:10 | 47.47448 | 6.69287 | 29594 ft | 453 kts | 279° |
| 2026-05-05 17:10 | 47.48024 | 6.64721 | 29992 ft | 451 kts | 274° |
| 2026-05-05 17:10 | 47.48367 | 6.60122 | 30341 ft | 450 kts | 273° |
| 2026-05-05 17:10 | 47.48700 | 6.55521 | 30747 ft | 449 kts | 273° |
| 2026-05-05 17:11 | 47.49029 | 6.50935 | 31136 ft | 447 kts | 273° |
| 2026-05-05 17:11 | 47.49356 | 6.46363 | 31531 ft | 446 kts | 273° |
| 2026-05-05 17:11 | 47.49681 | 6.41806 | 31933 ft | 444 kts | 273° |
| 2026-05-05 17:11 | 47.50004 | 6.37264 | 32329 ft | 443 kts | 273° |
| 2026-05-05 17:12 | 47.50317 | 6.32804 | 32728 ft | 442 kts | 273° |
| 2026-05-05 17:12 | 47.50631 | 6.28282 | 33143 ft | 440 kts | 273° |
| 2026-05-05 17:12 | 47.50940 | 6.23783 | 33556 ft | 439 kts | 272° |
| 2026-05-05 17:12 | 47.51246 | 6.19298 | 33919 ft | 439 kts | 272° |
| 2026-05-05 17:13 | 47.51553 | 6.14816 | 34251 ft | 438 kts | 272° |
| 2026-05-05 17:13 | 47.51862 | 6.10324 | 34563 ft | 438 kts | 272° |
| 2026-05-05 17:13 | 47.52171 | 6.05845 | 34850 ft | 438 kts | 272° |
| 2026-05-05 17:13 | 47.52476 | 6.01365 | 35123 ft | 438 kts | 272° |
| 2026-05-05 17:14 | 47.52777 | 5.96881 | 35393 ft | 438 kts | 272° |
| 2026-05-05 17:14 | 47.53102 | 5.92386 | 35635 ft | 439 kts | 276° |
| 2026-05-05 17:14 | 47.53815 | 5.87975 | 35822 ft | 444 kts | 285° |
| 2026-05-05 17:14 | 47.55059 | 5.83757 | 35883 ft | 451 kts | 296° |
| 2026-05-05 17:15 | 47.56820 | 5.79903 | 35870 ft | 456 kts | 307° |
| 2026-05-05 17:15 | 47.58970 | 5.76413 | 35869 ft | 459 kts | 310° |
| 2026-05-05 17:15 | 47.63279 | 5.69510 | 35860 ft | 459 kts | 309° |
| 2026-05-05 17:16 | 47.67596 | 5.62491 | 35862 ft | 459 kts | 309° |
| 2026-05-05 17:16 | 47.71131 | 5.56741 | 35857 ft | 460 kts | 309° |
| 2026-05-05 17:17 | 47.75290 | 5.49977 | 35860 ft | 460 kts | 309° |
| 2026-05-05 17:18 | 47.76493 | 5.48019 | 35854 ft | 460 kts | 309° |
| 2026-05-05 17:18 | 47.80810 | 5.41000 | 35855 ft | 461 kts | 310° |
| 2026-05-05 17:19 | 47.85099 | 5.33995 | 35843 ft | 461 kts | 309° |
| 2026-05-05 17:19 | 47.89411 | 5.26925 | 35838 ft | 461 kts | 309° |
| 2026-05-05 17:20 | 47.92905 | 5.21194 | 35833 ft | 461 kts | 309° |
| 2026-05-05 17:20 | 47.97222 | 5.14085 | 35835 ft | 462 kts | 309° |
| 2026-05-05 17:21 | 48.01510 | 5.07013 | 35840 ft | 462 kts | 310° |
| 2026-05-05 17:22 | 48.07960 | 4.96327 | 35831 ft | 462 kts | 310° |
| 2026-05-05 17:22 | 48.12273 | 4.89183 | 35816 ft | 463 kts | 310° |
| 2026-05-05 17:23 | 48.16585 | 4.82016 | 35825 ft | 463 kts | 309° |
| 2026-05-05 17:23 | 48.20887 | 4.74814 | 35820 ft | 463 kts | 309° |
| 2026-05-05 17:24 | 48.25178 | 4.67591 | 35833 ft | 463 kts | 310° |
| 2026-05-05 17:24 | 48.29476 | 4.60373 | 35827 ft | 463 kts | 310° |
| 2026-05-05 17:25 | 48.33780 | 4.53160 | 35818 ft | 463 kts | 310° |
| 2026-05-05 17:25 | 48.38065 | 4.45939 | 35789 ft | 463 kts | 310° |
| 2026-05-05 17:26 | 48.42335 | 4.38691 | 35794 ft | 463 kts | 310° |
| 2026-05-05 17:26 | 48.46606 | 4.31425 | 35809 ft | 463 kts | 310° |
| 2026-05-05 17:27 | 48.50854 | 4.24187 | 35815 ft | 464 kts | 310° |
| 2026-05-05 17:27 | 48.55124 | 4.16896 | 35806 ft | 464 kts | 310° |
| 2026-05-05 17:28 | 48.59390 | 4.09591 | 35800 ft | 464 kts | 310° |
| 2026-05-05 17:28 | 48.63646 | 4.02272 | 35794 ft | 464 kts | 310° |
| 2026-05-05 17:29 | 48.67923 | 3.94924 | 35792 ft | 465 kts | 310° |
| 2026-05-05 17:29 | 48.72186 | 3.87561 | 35796 ft | 465 kts | 310° |
| 2026-05-05 17:30 | 48.76661 | 3.80458 | 35795 ft | 466 kts | 315° |
| 2026-05-05 17:30 | 48.81359 | 3.73703 | 35799 ft | 466 kts | 316° |
| 2026-05-05 17:31 | 48.86066 | 3.66916 | 35809 ft | 466 kts | 315° |
| 2026-05-05 17:31 | 48.90664 | 3.60057 | 35810 ft | 466 kts | 314° |
| 2026-05-05 17:32 | 48.95265 | 3.53088 | 35812 ft | 466 kts | 314° |
| 2026-05-05 17:32 | 48.99871 | 3.46130 | 35827 ft | 467 kts | 315° |
| 2026-05-05 17:33 | 49.04489 | 3.39168 | 35821 ft | 467 kts | 315° |
| 2026-05-05 17:33 | 49.09108 | 3.32176 | 35817 ft | 468 kts | 315° |
| 2026-05-05 17:34 | 49.13730 | 3.25167 | 35819 ft | 468 kts | 314° |
| 2026-05-05 17:34 | 49.18347 | 3.18141 | 35824 ft | 468 kts | 314° |
| 2026-05-05 17:35 | 49.22968 | 3.11100 | 35827 ft | 468 kts | 314° |
| 2026-05-05 17:35 | 49.27551 | 3.04100 | 35827 ft | 469 kts | 314° |
| 2026-05-05 17:36 | 49.32161 | 2.97027 | 35827 ft | 469 kts | 314° |
| 2026-05-05 17:36 | 49.36765 | 2.89924 | 35827 ft | 470 kts | 314° |
| 2026-05-05 17:37 | 49.41375 | 2.82812 | 35837 ft | 470 kts | 314° |
| 2026-05-05 17:37 | 49.45988 | 2.75695 | 35842 ft | 470 kts | 314° |
| 2026-05-05 17:38 | 49.50591 | 2.68552 | 35835 ft | 470 kts | 314° |
| 2026-05-05 17:38 | 49.55182 | 2.61392 | 35851 ft | 470 kts | 314° |
| 2026-05-05 17:39 | 49.59750 | 2.54277 | 35861 ft | 470 kts | 316° |
| 2026-05-05 17:39 | 49.64856 | 2.47988 | 35861 ft | 470 kts | 322° |
| 2026-05-05 17:40 | 49.70068 | 2.41886 | 35866 ft | 470 kts | 322° |
| 2026-05-05 17:40 | 49.75267 | 2.35762 | 35862 ft | 470 kts | 322° |
| 2026-05-05 17:41 | 49.80460 | 2.29619 | 35863 ft | 470 kts | 322° |
| 2026-05-05 17:41 | 49.85654 | 2.23476 | 35878 ft | 470 kts | 322° |
| 2026-05-05 17:42 | 49.90842 | 2.17334 | 35885 ft | 469 kts | 322° |
| 2026-05-05 17:42 | 49.96030 | 2.11162 | 35879 ft | 469 kts | 322° |
| 2026-05-05 17:43 | 50.01160 | 2.05039 | 35874 ft | 468 kts | 322° |
| 2026-05-05 17:43 | 50.06322 | 1.98858 | 35873 ft | 468 kts | 322° |
| 2026-05-05 17:44 | 50.11510 | 1.92639 | 35875 ft | 468 kts | 322° |
| 2026-05-05 17:44 | 50.16635 | 1.86463 | 35875 ft | 468 kts | 320° |
| 2026-05-05 17:45 | 50.21349 | 1.79480 | 35878 ft | 467 kts | 314° |
| 2026-05-05 17:45 | 50.25998 | 1.72388 | 35884 ft | 467 kts | 315° |
| 2026-05-05 17:46 | 50.30653 | 1.65293 | 35885 ft | 468 kts | 314° |
| 2026-05-05 17:46 | 50.34516 | 1.59365 | 35885 ft | 468 kts | 314° |
| 2026-05-05 17:47 | 50.39164 | 1.52217 | 35682 ft | 468 kts | 314° |
| 2026-05-05 17:47 | 50.41489 | 1.48636 | 35431 ft | 467 kts | 315° |
| 2026-05-05 17:47 | 50.43803 | 1.45073 | 35185 ft | 465 kts | 315° |
| 2026-05-05 17:47 | 50.46113 | 1.41511 | 34939 ft | 465 kts | 315° |
| 2026-05-05 17:48 | 50.48418 | 1.37947 | 34703 ft | 466 kts | 314° |
| 2026-05-05 17:48 | 50.50723 | 1.34329 | 33962 ft | 470 kts | 313° |
| 2026-05-05 17:48 | 50.52989 | 1.30598 | 32855 ft | 475 kts | 312° |
| 2026-05-05 17:48 | 50.55231 | 1.26759 | 31833 ft | 475 kts | 311° |
| 2026-05-05 17:49 | 50.57433 | 1.22918 | 30815 ft | 472 kts | 310° |
| 2026-05-05 17:49 | 50.59663 | 1.19098 | 29614 ft | 477 kts | 312° |
| 2026-05-05 17:49 | 50.61965 | 1.15336 | 28429 ft | 474 kts | 313° |
| 2026-05-05 17:49 | 50.64287 | 1.11694 | 27841 ft | 465 kts | 314° |
| 2026-05-05 17:50 | 50.66590 | 1.08142 | 27078 ft | 460 kts | 315° |
| 2026-05-05 17:50 | 50.68865 | 1.04632 | 26351 ft | 456 kts | 314° |
| 2026-05-05 17:50 | 50.71106 | 1.01147 | 25627 ft | 451 kts | 314° |
| 2026-05-05 17:50 | 50.73315 | 0.97672 | 24921 ft | 447 kts | 314° |
| 2026-05-05 17:51 | 50.75497 | 0.94206 | 24215 ft | 443 kts | 314° |
| 2026-05-05 17:51 | 50.77654 | 0.90759 | 23508 ft | 439 kts | 315° |
| 2026-05-05 17:51 | 50.79783 | 0.87347 | 22750 ft | 434 kts | 315° |
| 2026-05-05 17:51 | 50.81864 | 0.84012 | 22129 ft | 427 kts | 315° |
| 2026-05-05 17:52 | 50.83933 | 0.80693 | 21491 ft | 421 kts | 315° |
| 2026-05-05 17:52 | 50.85978 | 0.77413 | 20911 ft | 415 kts | 315° |
| 2026-05-05 17:52 | 50.87991 | 0.74182 | 20349 ft | 409 kts | 315° |
| 2026-05-05 17:52 | 50.89976 | 0.70992 | 19812 ft | 404 kts | 315° |
| 2026-05-05 17:53 | 50.91932 | 0.67847 | 19301 ft | 398 kts | 315° |
| 2026-05-05 17:53 | 50.93865 | 0.64731 | 18803 ft | 393 kts | 316° |
| 2026-05-05 17:53 | 50.95770 | 0.61653 | 18320 ft | 389 kts | 316° |
| 2026-05-05 17:53 | 50.97654 | 0.58612 | 17706 ft | 386 kts | 315° |
| 2026-05-05 17:54 | 50.99562 | 0.55532 | 16642 ft | 395 kts | 316° |
| 2026-05-05 17:54 | 51.01507 | 0.52389 | 15625 ft | 403 kts | 315° |
| 2026-05-05 17:54 | 51.03454 | 0.49235 | 14677 ft | 394 kts | 315° |
| 2026-05-05 17:54 | 51.05348 | 0.46160 | 13666 ft | 385 kts | 315° |
| 2026-05-05 17:55 | 51.07201 | 0.43150 | 12658 ft | 375 kts | 315° |
| 2026-05-05 17:55 | 51.09029 | 0.40276 | 11983 ft | 359 kts | 316° |
| 2026-05-05 17:55 | 51.10761 | 0.37632 | 11844 ft | 341 kts | 317° |
| 2026-05-05 17:55 | 51.12455 | 0.35080 | 11714 ft | 328 kts | 317° |
| 2026-05-05 17:56 | 51.14079 | 0.32640 | 11585 ft | 315 kts | 317° |
| 2026-05-05 17:56 | 51.15644 | 0.30278 | 11462 ft | 304 kts | 317° |
| 2026-05-05 17:56 | 51.17158 | 0.27982 | 11226 ft | 298 kts | 317° |
| 2026-05-05 17:56 | 51.18641 | 0.25719 | 10965 ft | 292 kts | 316° |
| 2026-05-05 17:57 | 51.20102 | 0.23480 | 10711 ft | 290 kts | 316° |
| 2026-05-05 17:57 | 51.21552 | 0.21257 | 10300 ft | 287 kts | 316° |
| 2026-05-05 17:57 | 51.22984 | 0.19061 | 9726 ft | 283 kts | 317° |
| 2026-05-05 17:57 | 51.24370 | 0.16932 | 9139 ft | 279 kts | 317° |
| 2026-05-05 17:58 | 51.25756 | 0.14798 | 8602 ft | 276 kts | 317° |
| 2026-05-05 17:58 | 51.27124 | 0.12691 | 8135 ft | 271 kts | 317° |
| 2026-05-05 17:58 | 51.28484 | 0.10594 | 8028 ft | 271 kts | 317° |
| 2026-05-05 17:58 | 51.29828 | 0.08523 | 8020 ft | 264 kts | 317° |
| 2026-05-05 17:59 | 51.31174 | 0.06447 | 8015 ft | 271 kts | 317° |
| 2026-05-05 17:59 | 51.32429 | 0.04189 | 7991 ft | 273 kts | 302° |
| 2026-05-05 17:59 | 51.32992 | 0.01272 | 7952 ft | 278 kts | 276° |
| 2026-05-05 17:59 | 51.33034 | -0.01807 | 7936 ft | 279 kts | 271° |
| 2026-05-05 18:00 | 51.33025 | -0.04912 | 7927 ft | 279 kts | 271° |
| 2026-05-05 18:00 | 51.33013 | -0.08009 | 7947 ft | 279 kts | 271° |
| 2026-05-05 18:00 | 51.32998 | -0.11111 | 7945 ft | 279 kts | 271° |
| 2026-05-05 18:00 | 51.32982 | -0.14171 | 7945 ft | 279 kts | 271° |
| 2026-05-05 18:01 | 51.32967 | -0.17267 | 7935 ft | 279 kts | 271° |
| 2026-05-05 18:01 | 51.32952 | -0.20369 | 7946 ft | 279 kts | 271° |
| 2026-05-05 18:01 | 51.32937 | -0.23472 | 7949 ft | 279 kts | 271° |
| 2026-05-05 18:01 | 51.32922 | -0.26568 | 7943 ft | 279 kts | 271° |
| 2026-05-05 18:02 | 51.32905 | -0.29674 | 7946 ft | 279 kts | 271° |
| 2026-05-05 18:02 | 51.32889 | -0.32768 | 7949 ft | 279 kts | 271° |
| 2026-05-05 18:02 | 51.32874 | -0.35857 | 7947 ft | 278 kts | 271° |
| 2026-05-05 18:02 | 51.32853 | -0.38957 | 7936 ft | 279 kts | 271° |
| 2026-05-05 18:03 | 51.32835 | -0.42054 | 7939 ft | 279 kts | 271° |
| 2026-05-05 18:03 | 51.32817 | -0.45161 | 7938 ft | 279 kts | 271° |
| 2026-05-05 18:03 | 51.32798 | -0.48260 | 7936 ft | 279 kts | 271° |
| 2026-05-05 18:03 | 51.32778 | -0.51361 | 7948 ft | 279 kts | 271° |
| 2026-05-05 18:04 | 51.32759 | -0.54469 | 7937 ft | 279 kts | 271° |
| 2026-05-05 18:04 | 51.32739 | -0.57534 | 7945 ft | 268 kts | 271° |
| 2026-05-05 18:04 | 51.32717 | -0.60428 | 7947 ft | 252 kts | 271° |
| 2026-05-05 18:04 | 51.32692 | -0.63184 | 7948 ft | 247 kts | 271° |
| 2026-05-05 18:05 | 51.32667 | -0.65923 | 7938 ft | 246 kts | 271° |
| 2026-05-05 18:05 | 51.32641 | -0.68649 | 7847 ft | 244 kts | 271° |
| 2026-05-05 18:05 | 51.32614 | -0.71354 | 7507 ft | 243 kts | 271° |
| 2026-05-05 18:05 | 51.32588 | -0.74040 | 7034 ft | 240 kts | 273° |
| 2026-05-05 18:06 | 51.32916 | -0.76592 | 6511 ft | 233 kts | 298° |
| 2026-05-05 18:06 | 51.33491 | -0.78011 | 6156 ft | 229 kts | 314° |
| 2026-05-05 18:06 | 51.35246 | -0.79720 | 5497 ft | 219 kts | 348° |
| 2026-05-05 18:06 | 51.36727 | -0.79826 | 5262 ft | 211 kts | 6° |
| 2026-05-05 18:07 | 51.38183 | -0.79593 | 4991 ft | 210 kts | 6° |
| 2026-05-05 18:07 | 51.39631 | -0.79373 | 4702 ft | 208 kts | 6° |
| 2026-05-05 18:07 | 51.41069 | -0.79155 | 4393 ft | 207 kts | 6° |
| 2026-05-05 18:07 | 51.42503 | -0.78936 | 4081 ft | 207 kts | 6° |
| 2026-05-05 18:08 | 51.43914 | -0.78720 | 3939 ft | 199 kts | 6° |
| 2026-05-05 18:08 | 51.45247 | -0.78239 | 3697 ft | 194 kts | 23° |
| 2026-05-05 18:08 | 51.46346 | -0.77118 | 3529 ft | 183 kts | 41° |
| 2026-05-05 18:08 | 51.47121 | -0.75567 | 3368 ft | 175 kts | 59° |
| 2026-05-05 18:09 | 51.47546 | -0.73767 | 3188 ft | 171 kts | 76° |
| 2026-05-05 18:09 | 51.47625 | -0.71869 | 2980 ft | 170 kts | 87° |
| 2026-05-05 18:09 | 51.47638 | -0.69980 | 2756 ft | 169 kts | 86° |
| 2026-05-05 18:09 | 51.47650 | -0.68103 | 2531 ft | 168 kts | 87° |
| 2026-05-05 18:10 | 51.47662 | -0.66233 | 2304 ft | 167 kts | 87° |
| 2026-05-05 18:10 | 51.47671 | -0.64424 | 2091 ft | 160 kts | 86° |
| 2026-05-05 18:10 | 51.47680 | -0.62719 | 1891 ft | 145 kts | 86° |
| 2026-05-05 18:10 | 51.47689 | -0.61143 | 1686 ft | 138 kts | 87° |
| 2026-05-05 18:11 | 51.47697 | -0.59625 | 1489 ft | 135 kts | 86° |
| 2026-05-05 18:11 | 51.47705 | -0.58130 | 1317 ft | 133 kts | 87° |
| 2026-05-05 18:11 | 51.47712 | -0.56648 | 1135 ft | 133 kts | 86° |
| 2026-05-05 18:11 | 51.47721 | -0.55166 | 950 ft | 133 kts | 87° |
| 2026-05-05 18:12 | 51.47725 | -0.53678 | 748 ft | 134 kts | 88° |
| 2026-05-05 18:12 | 51.47731 | -0.52198 | 574 ft | 135 kts | 86° |
| 2026-05-05 18:12 | 51.47740 | -0.50690 | 409 ft | 135 kts | 87° |
| 2026-05-05 18:12 | 51.47750 | -0.49193 | 205 ft | 134 kts | 86° |
| 2026-05-05 18:13 | 51.47753 | -0.47714 | 87 ft | 127 kts | 87° |
| 2026-05-05 18:13 | 51.47757 | -0.46549 | 93 ft | 80 kts | 90° |
| 2026-05-05 18:13 | 51.47758 | -0.45855 | 87 ft | 50 kts | 89° |
| 2026-05-05 18:13 | 51.47732 | -0.45480 | 88 ft | 18 kts | 143° |
| 2026-05-05 18:14 | 51.47660 | -0.45467 | 87 ft | 8 kts | 179° |
| 2026-05-05 18:14 | 51.47614 | -0.45454 | 86 ft | 6 kts | 148° |
| 2026-05-05 18:14 | 51.47597 | -0.45357 | 89 ft | 16 kts | 89° |
| 2026-05-05 18:14 | 51.47597 | -0.45167 | 86 ft | 18 kts | 90° |
| 2026-05-05 18:15 | 51.47598 | -0.44949 | 86 ft | 21 kts | 89° |
| 2026-05-05 18:15 | 51.47597 | -0.44721 | 87 ft | 17 kts | 95° |
| 2026-05-05 18:15 | 51.47511 | -0.44626 | 89 ft | 15 kts | 130° |